Etusivu
METAR-TAF:

METAR-TAF

Lentoasemat :

Scotts Seaplane Base

Crane Lake, Minnesota, Yhdysvallat

Leveyspiiri: 48-15-59N, Pituuspiiri: 092-29-01W, korkeus merenpinnasta: 341 m

Tämänhetkinen sää

Tämä raportti tehtiin 31 minuuttia sitten, kello 09.12 UTC
Tuuli 3 kn etelästä/kaakosta
Lämpötila -11°C
Kosteus 66%
Ilmanpaine 1012 hPa
Näkyvyys: 4.0 km
Hajonneita pilviä 3900 ft:n korkeudessa
Hajonneita pilviä 4500 ft:n korkeudessa
Pilvistä 6000 ft:n korkeudessa
heikkoa lumisadetta

METAR: KCDD 130912Z AUTO 15003KT 2 1/2SM -SN BKN039 BKN045 OVC060 M11/M16 A2989 RMK AO2

Aika: 03:43 (09:43 UTC)


TAF: puuttuu

Säähavainnot ja -ennusteet yli 4000 lentoasemalta (METAR- ja TAF-raportit).

Käytössä olevat sääasemat on merkitty karttaan keltaisilla ja punaisilla pisteillä.

Aseta hiiri pisteen päälle nähdäksesi sääaseman nimen.

Klikkaa sitten nähdäksesi säähavainnot ja -ennusteet.

Kartan vaihtaminen: klikkaa mustalla rastilla varustettuja vihreitä pisteitä, niin voit zoomata sisään; viivalla varustettua vihreää pistettä, niin voit zoomata ulos tai vihreitä nuolia, niin pääset viereisille kartoille.


METAR-TAF: